createdAt,value
2022-09-01T00:01:49.677Z,89.60
2022-09-01T00:04:20.109Z,89.30
2022-09-01T00:06:48.916Z,88.88
2022-09-01T00:09:18.645Z,88.29
2022-09-01T00:11:50.602Z,88.77
2022-09-01T00:14:29.692Z,91.57
2022-09-01T00:16:59.357Z,89.84
2022-09-01T00:19:27.216Z,89.01
2022-09-01T00:21:54.962Z,88.62
2022-09-01T00:24:23.374Z,89.07
2022-09-01T00:26:50.993Z,89.02
2022-09-01T00:29:20.652Z,89.43
2022-09-01T00:31:48.944Z,89.53
2022-09-01T00:34:17.647Z,89.49
2022-09-01T00:36:45.329Z,89.22
2022-09-01T00:39:15.251Z,90.20
2022-09-01T00:41:44.771Z,89.84
2022-09-01T00:44:15.593Z,90.28
2022-09-01T00:46:49.564Z,89.79
2022-09-01T00:49:22.077Z,89.71
2022-09-01T00:51:54.304Z,90.04
2022-09-01T00:54:25.622Z,89.62
2022-09-01T00:56:57.673Z,88.29
2022-09-01T00:59:28.825Z,88.09
2022-09-01T01:01:58.209Z,88.18
2022-09-01T01:04:26.055Z,87.88
2022-09-01T01:07:02.145Z,88.45
2022-09-01T01:09:33.866Z,87.77
2022-09-01T01:12:04.861Z,87.66
2022-09-01T01:14:32.565Z,87.49
2022-09-01T01:17:02.084Z,87.34
2022-09-01T01:19:58.504Z,87.73
2022-09-01T01:22:53.771Z,87.76
2022-09-01T01:25:23.906Z,87.36
2022-09-01T01:27:51.868Z,87.74
2022-09-01T01:30:20.984Z,88.23
2022-09-01T01:32:49.398Z,86.91
2022-09-01T01:35:20.584Z,88.75
2022-09-01T01:37:49.158Z,87.60
2022-09-01T01:40:22.638Z,88.76
2022-09-01T01:42:53.280Z,90.11
2022-09-01T01:45:23.986Z,91.24
2022-09-01T01:47:54.027Z,89.91
2022-09-01T01:50:26.328Z,91.50
2022-09-01T01:52:58.451Z,90.88
2022-09-01T01:55:28.825Z,90.93
2022-09-01T01:58:00.365Z,91.46
2022-09-01T02:00:34.592Z,90.44
2022-09-01T02:03:03.154Z,89.92
2022-09-01T02:05:33.412Z,89.92
2022-09-01T02:08:04.547Z,90.06
2022-09-01T02:10:35.175Z,88.77
2022-09-01T02:13:07.164Z,89.22
2022-09-01T02:15:43.680Z,89.35
2022-09-01T02:18:14.127Z,89.17
2022-09-01T02:20:41.995Z,88.43
2022-09-01T02:23:10.766Z,89.78
2022-09-01T02:26:05.263Z,89.23
2022-09-01T02:28:42.372Z,88.79
2022-09-01T02:31:12.559Z,87.69
2022-09-01T02:33:44.045Z,87.79
2022-09-01T02:36:15.195Z,89.94
2022-09-01T02:38:46.801Z,89.20
2022-09-01T02:41:22.987Z,89.30
2022-09-01T02:43:52.621Z,88.73
2022-09-01T02:46:24.281Z,89.28
2022-09-01T02:48:54.509Z,88.63
2022-09-01T02:51:25.535Z,88.63
2022-09-01T02:53:54.941Z,88.50
2022-09-01T02:56:27.275Z,88.06
2022-09-01T02:58:56.777Z,88.31
2022-09-01T03:01:29.574Z,89.16
2022-09-01T03:04:01.456Z,88.83
2022-09-01T03:06:33.990Z,88.47
2022-09-01T03:09:05.549Z,88.61
2022-09-01T03:11:35.166Z,88.88
2022-09-01T03:14:05.272Z,88.00
2022-09-01T03:16:33.372Z,87.77
2022-09-01T03:19:03.206Z,87.49
2022-09-01T03:21:32.037Z,88.33
2022-09-01T03:24:01.983Z,87.07
2022-09-01T03:26:29.669Z,87.40
2022-09-01T03:28:59.050Z,88.12
2022-09-01T03:31:30.804Z,87.19
2022-09-01T03:34:01.062Z,87.79
2022-09-01T03:36:33.256Z,87.69
2022-09-01T03:39:02.061Z,87.64
2022-09-01T03:41:33.399Z,87.46
2022-09-01T03:44:01.278Z,86.70
2022-09-01T03:46:36.918Z,87.28
2022-09-01T03:49:07.234Z,87.09
2022-09-01T03:51:38.830Z,87.53
2022-09-01T03:54:07.935Z,86.87
2022-09-01T03:56:35.729Z,86.11
2022-09-01T03:59:04.745Z,86.30
2022-09-01T04:01:39.878Z,86.42
2022-09-01T04:04:07.772Z,86.25
2022-09-01T04:06:35.422Z,86.20
2022-09-01T04:09:03.602Z,86.43
2022-09-01T04:11:36.155Z,86.26
2022-09-01T04:14:03.815Z,85.88
2022-09-01T04:16:56.365Z,85.94
2022-09-01T04:19:26.570Z,86.24
2022-09-01T04:21:59.848Z,86.19
2022-09-01T04:24:32.826Z,89.49
2022-09-01T04:27:03.027Z,87.65
2022-09-01T04:29:31.678Z,86.96
2022-09-01T04:32:03.917Z,91.26
2022-09-01T04:34:37.128Z,89.88
2022-09-01T04:37:09.885Z,90.64
2022-09-01T04:39:39.070Z,90.67
2022-09-01T04:42:09.111Z,90.79
2022-09-01T04:44:37.676Z,89.59
2022-09-01T04:47:12.154Z,88.99
2022-09-01T04:49:39.815Z,88.83
2022-09-01T04:52:07.488Z,88.70
2022-09-01T04:54:36.917Z,87.82
2022-09-01T04:57:05.641Z,87.43
2022-09-01T04:59:37.346Z,88.54
2022-09-01T05:02:07.815Z,88.93
2022-09-01T05:04:44.886Z,87.90
2022-09-01T05:07:14.163Z,88.12
2022-09-01T05:09:42.340Z,88.12
2022-09-01T05:12:29.361Z,87.44
2022-09-01T05:14:57.653Z,86.93
2022-09-01T05:17:25.977Z,86.32
2022-09-01T05:19:56.763Z,86.05
2022-09-01T05:22:25.751Z,86.16
2022-09-01T05:25:02.922Z,85.76
2022-09-01T05:27:30.913Z,85.94
2022-09-01T05:30:00.149Z,86.29
2022-09-01T05:32:28.629Z,86.37
2022-09-01T05:34:58.617Z,87.00
2022-09-01T05:37:28.725Z,87.14
2022-09-01T05:39:56.686Z,88.12
2022-09-01T05:42:24.577Z,88.22
2022-09-01T05:44:52.968Z,88.18
2022-09-01T05:47:21.815Z,88.69
2022-09-01T05:49:53.629Z,89.15
2022-09-01T05:52:26.129Z,88.99
2022-09-01T05:54:59.969Z,89.62
2022-09-01T05:57:34.641Z,89.90
2022-09-01T06:00:10.767Z,90.55
2022-09-01T06:02:40.910Z,89.92
2022-09-01T06:05:11.426Z,90.13
2022-09-01T06:07:40.802Z,90.69
2022-09-01T06:10:09.496Z,90.47
2022-09-01T06:12:37.255Z,90.75
2022-09-01T06:15:08.860Z,91.06
2022-09-01T06:17:36.902Z,91.18
2022-09-01T06:20:12.738Z,89.96
2022-09-01T06:22:44.751Z,90.48
2022-09-01T06:25:12.524Z,90.30
2022-09-01T06:27:44.746Z,89.47
2022-09-01T06:30:23.143Z,89.04
2022-09-01T06:33:02.104Z,88.21
2022-09-01T06:35:30.330Z,89.29
2022-09-01T06:38:01.911Z,88.91
2022-09-01T06:40:39.574Z,87.96
2022-09-01T06:43:08.206Z,88.02
2022-09-01T06:45:42.003Z,87.83
2022-09-01T06:48:15.777Z,87.30
2022-09-01T06:53:35.609Z,87.12
2022-09-01T06:56:08.105Z,86.67
2022-09-01T06:58:36.892Z,86.25
2022-09-01T07:01:08.197Z,86.40
2022-09-01T07:03:36.376Z,86.63
2022-09-01T07:09:20.675Z,85.00
2022-09-01T07:12:27.786Z,85.17
2022-09-01T07:17:50.018Z,84.66
2022-09-01T07:20:24.824Z,83.72
2022-09-01T07:23:09.995Z,84.62
2022-09-01T07:26:02.361Z,84.30
2022-09-01T07:39:52.657Z,82.59
2022-09-01T07:42:31.639Z,82.64
2022-09-01T07:45:58.363Z,82.80
2022-09-01T07:48:36.666Z,82.98
2022-09-01T07:51:36.155Z,83.68
2022-09-01T07:54:05.775Z,83.45
2022-09-01T07:56:37.551Z,82.49
2022-09-01T07:59:14.823Z,83.21
2022-09-01T08:01:51.356Z,80.95
2022-09-01T08:04:22.988Z,79.79
2022-09-01T08:06:51.551Z,80.42
2022-09-01T08:09:25.280Z,79.53
2022-09-01T08:12:02.962Z,79.27
2022-09-01T08:14:35.462Z,78.75
2022-09-01T08:17:34.072Z,78.94
2022-09-01T08:19:53.399Z,78.03
2022-09-01T08:22:33.918Z,77.80
2022-09-01T08:25:07.581Z,77.98
2022-09-01T08:27:38.705Z,78.13
2022-09-01T08:30:12.686Z,79.08
2022-09-01T08:32:42.061Z,78.71
2022-09-01T08:35:11.418Z,78.41
2022-09-01T08:37:39.816Z,75.90
2022-09-01T08:40:09.275Z,75.62
2022-09-01T08:42:51.243Z,76.73
2022-09-01T08:45:26.138Z,76.61
2022-09-01T08:48:32.301Z,75.85
2022-09-01T08:50:51.127Z,73.86
2022-09-01T08:53:38.020Z,73.79
2022-09-01T08:56:06.665Z,72.62
2022-09-01T08:58:34.377Z,72.23
2022-09-01T09:01:32.031Z,71.19
2022-09-01T09:04:13.340Z,68.89
2022-09-01T09:06:54.814Z,68.20
2022-09-01T09:09:34.286Z,67.57
2022-09-01T09:12:22.218Z,67.54
2022-09-01T09:15:10.840Z,67.41
2022-09-01T09:17:46.238Z,67.63
2022-09-01T09:20:14.167Z,64.65
2022-09-01T09:22:50.054Z,65.24
2022-09-01T09:25:19.770Z,63.95
2022-09-01T09:27:49.338Z,63.58
2022-09-01T09:30:23.005Z,64.32
2022-09-01T09:35:44.824Z,62.37
2022-09-01T09:38:28.485Z,61.69
2022-09-01T09:43:51.925Z,61.03
2022-09-01T09:46:26.958Z,61.02
2022-09-01T09:49:19.314Z,61.49
2022-09-01T09:52:16.437Z,62.52
2022-09-01T09:55:01.650Z,60.31
2022-09-01T09:57:31.345Z,60.04
2022-09-01T10:00:03.131Z,60.00
2022-09-01T10:02:41.788Z,57.73
2022-09-01T10:05:30.375Z,58.45
2022-09-01T10:07:59.169Z,58.16
2022-09-01T10:10:31.189Z,57.70
2022-09-01T10:13:00.657Z,57.35
2022-09-01T10:15:33.494Z,58.26
2022-09-01T10:18:28.813Z,57.76
2022-09-01T10:21:00.020Z,57.05
2022-09-01T10:23:30.900Z,56.66
2022-09-01T10:26:06.034Z,56.27
2022-09-01T10:28:37.877Z,56.20
2022-09-01T10:31:09.118Z,55.64
2022-09-01T10:33:37.209Z,55.30
2022-09-01T10:36:07.975Z,55.16
2022-09-01T10:38:36.178Z,54.53
2022-09-01T10:41:15.001Z,54.52
2022-09-01T10:43:45.477Z,54.01
2022-09-01T10:46:51.576Z,54.96
2022-09-01T10:49:27.777Z,53.23
2022-09-01T10:52:03.642Z,53.67
2022-09-01T10:54:57.839Z,51.97
2022-09-01T10:57:43.456Z,53.19
2022-09-01T11:04:02.799Z,51.96
2022-09-01T11:07:12.157Z,51.14
2022-09-01T11:09:43.505Z,50.98
2022-09-01T11:12:48.201Z,51.51
2022-09-01T11:15:38.749Z,51.94
2022-09-01T11:18:12.117Z,51.86
2022-09-01T11:20:42.696Z,49.92
2022-09-01T11:23:14.902Z,47.01
2022-09-01T11:25:48.398Z,48.09
2022-09-01T11:28:45.326Z,47.88
2022-09-01T11:31:37.946Z,47.50
2022-09-01T11:34:15.606Z,48.35
2022-09-01T11:36:55.525Z,45.26
2022-09-01T11:39:37.665Z,44.19
2022-09-01T11:42:13.830Z,43.38
2022-09-01T11:44:47.891Z,42.44
2022-09-01T11:47:19.021Z,40.98
2022-09-01T11:49:53.504Z,41.27
2022-09-01T11:52:24.237Z,41.57
2022-09-01T11:54:52.321Z,41.51
2022-09-01T11:57:32.672Z,40.09
2022-09-01T12:00:02.691Z,39.51
2022-09-01T12:02:44.892Z,40.93
2022-09-01T12:05:27.662Z,40.38
2022-09-01T12:07:56.799Z,39.21
2022-09-01T12:10:32.570Z,38.39
2022-09-01T12:13:06.765Z,37.32
2022-09-01T12:15:36.476Z,37.98
2022-09-01T12:18:14.300Z,38.22
2022-09-01T12:20:42.294Z,38.90
2022-09-01T12:23:25.386Z,39.77
2022-09-01T12:25:55.667Z,39.06
2022-09-01T12:28:25.849Z,37.42
2022-09-01T12:31:00.305Z,36.13
2022-09-01T12:33:28.953Z,35.58
2022-09-01T12:36:14.649Z,35.03
2022-09-01T12:38:42.306Z,35.83
2022-09-01T12:41:25.287Z,35.28
2022-09-01T12:43:54.943Z,36.00
2022-09-01T12:46:47.222Z,34.17
2022-09-01T12:49:19.567Z,33.00
2022-09-01T12:51:48.652Z,32.88
2022-09-01T12:54:16.881Z,32.72
2022-09-01T12:56:50.969Z,32.41
2022-09-01T12:59:36.224Z,30.94
2022-09-01T13:02:27.214Z,29.08
2022-09-01T13:04:54.946Z,29.29
2022-09-01T13:07:22.532Z,29.92
2022-09-01T13:09:50.144Z,28.58
2022-09-01T13:12:20.002Z,28.46
2022-09-01T13:14:49.546Z,27.81
2022-09-01T13:17:17.650Z,26.94
2022-09-01T13:19:45.305Z,25.36
2022-09-01T13:22:12.973Z,24.69
2022-09-01T13:24:40.851Z,25.70
2022-09-01T13:27:24.314Z,24.24
2022-09-01T13:29:53.386Z,25.31
2022-09-01T13:32:22.846Z,24.97
2022-09-01T13:34:53.791Z,25.53
2022-09-01T13:37:23.130Z,25.46
2022-09-01T13:39:51.295Z,27.05
2022-09-01T13:42:19.624Z,27.89
2022-09-01T13:44:49.785Z,27.83
2022-09-01T13:47:29.799Z,28.37
2022-09-01T13:50:07.882Z,27.73
2022-09-01T13:52:37.434Z,28.07
2022-09-01T13:55:06.739Z,29.03
2022-09-01T13:57:36.216Z,28.11
2022-09-01T14:00:07.599Z,28.65
2022-09-01T14:02:39.825Z,28.05
2022-09-01T14:05:08.342Z,27.49
2022-09-01T14:07:37.056Z,27.70
2022-09-01T14:10:05.033Z,28.80
2022-09-01T14:12:32.672Z,27.80
2022-09-01T14:15:18.010Z,27.50
2022-09-01T14:17:49.957Z,27.66
2022-09-01T14:20:19.407Z,27.59
2022-09-01T14:22:47.601Z,26.72
2022-09-01T14:25:16.062Z,25.34
2022-09-01T14:27:44.704Z,25.19
2022-09-01T14:30:16.093Z,25.42
2022-09-01T14:32:43.970Z,23.50
2022-09-01T14:35:13.303Z,21.60
2022-09-01T14:37:41.952Z,19.85
2022-09-01T14:40:16.443Z,19.31
2022-09-01T14:42:49.019Z,20.09
2022-09-01T14:45:18.381Z,20.67
2022-09-01T14:47:46.273Z,20.59
2022-09-01T14:50:19.853Z,20.53
2022-09-01T14:52:52.721Z,20.25
2022-09-01T14:55:20.458Z,19.34
2022-09-01T14:57:48.308Z,19.07
2022-09-01T15:00:16.904Z,20.07
2022-09-01T15:02:45.346Z,19.66
2022-09-01T15:05:15.962Z,19.43
2022-09-01T15:07:44.165Z,18.76
2022-09-01T15:10:18.344Z,18.23
2022-09-01T15:12:53.917Z,17.56
2022-09-01T15:15:22.670Z,17.82
2022-09-01T15:17:50.376Z,18.54
2022-09-01T15:20:37.278Z,18.97
2022-09-01T15:23:05.685Z,20.17
2022-09-01T15:25:33.640Z,19.99
2022-09-01T15:28:01.397Z,20.05
2022-09-01T15:30:29.139Z,20.28
2022-09-01T15:32:56.755Z,19.99
2022-09-01T15:35:25.743Z,21.33
2022-09-01T15:37:53.718Z,20.78
2022-09-01T15:40:21.705Z,20.07
2022-09-01T15:42:49.744Z,19.69
2022-09-01T15:45:20.309Z,18.56
2022-09-01T15:47:49.126Z,18.35
2022-09-01T15:50:21.201Z,17.94
2022-09-01T15:52:53.965Z,17.90
2022-09-01T15:55:24.402Z,17.39
2022-09-01T15:57:54.164Z,16.86
2022-09-01T16:00:23.825Z,16.37
2022-09-01T16:02:54.275Z,15.99
2022-09-01T16:05:22.177Z,15.58
2022-09-01T16:07:53.735Z,15.74
2022-09-01T16:10:22.625Z,16.10
2022-09-01T16:12:51.878Z,15.42
2022-09-01T16:15:22.150Z,15.54
2022-09-01T16:18:04.321Z,15.30
2022-09-01T16:20:47.106Z,15.01
2022-09-01T16:23:18.488Z,15.06
2022-09-01T16:25:47.414Z,15.87
2022-09-01T16:28:25.985Z,16.58
2022-09-01T16:30:57.002Z,16.11
2022-09-01T16:33:24.720Z,16.20
2022-09-01T16:36:04.120Z,17.50
2022-09-01T16:38:42.716Z,18.16
2022-09-01T16:41:18.498Z,18.41
2022-09-01T16:43:52.406Z,18.38
2022-09-01T16:46:26.259Z,19.55
2022-09-01T16:48:58.923Z,19.79
2022-09-01T16:51:32.478Z,21.52
2022-09-01T16:54:13.226Z,21.72
2022-09-01T16:56:51.200Z,22.57
2022-09-01T16:59:26.852Z,23.81
2022-09-01T17:02:06.720Z,24.82
2022-09-01T17:04:41.560Z,25.73
2022-09-01T17:07:15.179Z,26.30
2022-09-01T17:09:46.256Z,26.56
2022-09-01T17:12:23.451Z,27.05
2022-09-01T17:14:57.585Z,27.98
2022-09-01T17:17:33.934Z,28.18
2022-09-01T17:20:05.298Z,29.52
2022-09-01T17:22:34.949Z,30.78
2022-09-01T17:25:09.688Z,31.47
2022-09-01T17:27:43.305Z,33.09
2022-09-01T17:30:11.479Z,34.62
2022-09-01T17:32:52.993Z,35.91
2022-09-01T17:35:27.469Z,36.16
2022-09-01T17:38:04.572Z,37.43
2022-09-01T17:40:58.836Z,40.38
2022-09-01T17:43:32.177Z,40.63
2022-09-01T17:46:08.196Z,41.29
2022-09-01T17:48:43.903Z,40.95
2022-09-01T17:51:24.614Z,41.30
2022-09-01T17:54:04.045Z,42.13
2022-09-01T17:56:42.302Z,45.31
2022-09-01T17:59:16.412Z,45.79
2022-09-01T18:01:52.747Z,47.22
2022-09-01T18:04:40.007Z,47.83
2022-09-01T18:07:19.721Z,48.40
2022-09-01T18:09:52.901Z,50.12
2022-09-01T18:12:27.010Z,51.32
2022-09-01T18:15:00.813Z,51.49
2022-09-01T18:17:31.778Z,52.65
2022-09-01T18:20:07.993Z,52.06
2022-09-01T18:22:42.917Z,53.70
2022-09-01T18:25:17.625Z,54.43
2022-09-01T18:27:47.926Z,55.68
2022-09-01T18:30:26.190Z,56.05
2022-09-01T18:33:14.388Z,56.93
2022-09-01T18:35:47.514Z,57.58
2022-09-01T18:38:26.690Z,57.70
2022-09-01T18:41:18.213Z,58.73
2022-09-01T18:43:56.100Z,59.12
2022-09-01T18:46:34.114Z,59.81
2022-09-01T18:49:12.459Z,60.07
2022-09-01T18:51:56.974Z,60.67
2022-09-01T18:54:32.144Z,61.24
2022-09-01T18:57:02.797Z,61.17
2022-09-01T19:00:02.913Z,61.89
2022-09-01T19:03:07.369Z,62.09
2022-09-01T19:05:47.148Z,62.32
2022-09-01T19:08:23.851Z,62.61
2022-09-01T19:10:59.181Z,63.19
2022-09-01T19:13:41.236Z,63.59
2022-09-01T19:16:24.528Z,64.37
2022-09-01T19:19:02.596Z,64.39
2022-09-01T19:21:32.369Z,64.34
2022-09-01T19:24:07.266Z,64.85
2022-09-01T19:26:42.656Z,64.62
2022-09-01T19:29:16.357Z,64.73
2022-09-01T19:31:49.196Z,65.02
2022-09-01T19:34:25.489Z,64.54
2022-09-01T19:36:56.807Z,64.65
2022-09-01T19:39:27.323Z,64.76
2022-09-01T19:42:00.353Z,64.75
2022-09-01T19:44:35.496Z,65.15
2022-09-01T19:47:13.634Z,65.79
2022-09-01T19:49:47.289Z,66.39
2022-09-01T19:52:24.695Z,65.55
2022-09-01T19:54:59.631Z,65.22
2022-09-01T19:57:33.491Z,65.56
2022-09-01T20:00:09.686Z,65.74
2022-09-01T20:02:45.220Z,66.36
2022-09-01T20:05:24.345Z,66.51
2022-09-01T20:07:55.765Z,66.15
2022-09-01T20:10:39.007Z,66.74
2022-09-01T20:13:25.995Z,67.58
2022-09-01T20:16:00.360Z,67.53
2022-09-01T20:18:33.356Z,67.96
2022-09-01T20:21:04.829Z,68.17
2022-09-01T20:23:37.581Z,68.93
2022-09-01T20:26:10.674Z,69.18
2022-09-01T20:28:48.567Z,69.43
2022-09-01T20:31:22.858Z,69.87
2022-09-01T20:33:56.016Z,70.33
2022-09-01T20:36:30.423Z,70.11
2022-09-01T20:39:19.569Z,70.57
2022-09-01T20:41:56.108Z,71.26
2022-09-01T20:44:30.096Z,71.17
2022-09-01T20:46:58.507Z,72.15
2022-09-01T20:49:27.485Z,71.97
2022-09-01T20:52:00.773Z,72.48
2022-09-01T20:54:34.664Z,72.96
2022-09-01T20:57:11.821Z,72.71
2022-09-01T20:59:46.136Z,73.21
2022-09-01T21:02:35.133Z,73.72
2022-09-01T21:05:16.334Z,73.23
2022-09-01T21:07:56.330Z,73.19
2022-09-01T21:10:35.490Z,73.42
2022-09-01T21:13:15.311Z,73.68
2022-09-01T21:15:49.289Z,74.36
2022-09-01T21:18:39.997Z,74.10
2022-09-01T21:21:16.758Z,74.14
2022-09-01T21:23:44.420Z,74.86
2022-09-01T21:26:12.669Z,75.23
2022-09-01T21:28:43.023Z,74.29
2022-09-01T21:31:14.067Z,75.24
2022-09-01T21:33:41.731Z,75.41
2022-09-01T21:36:11.190Z,75.80
2022-09-01T21:38:38.854Z,76.16
2022-09-01T21:41:12.236Z,75.76
2022-09-01T21:43:44.784Z,76.02
2022-09-01T21:46:13.566Z,76.15
2022-09-01T21:48:41.517Z,75.39
2022-09-01T21:51:09.156Z,75.62
2022-09-01T21:53:38.122Z,74.68
2022-09-01T21:56:05.864Z,75.61
2022-09-01T21:58:33.504Z,75.96
2022-09-01T22:01:02.305Z,76.09
2022-09-01T22:03:30.048Z,76.83
2022-09-01T22:05:57.688Z,76.93
2022-09-01T22:08:25.311Z,76.93
2022-09-01T22:10:56.292Z,76.77
2022-09-01T22:13:25.495Z,76.98
2022-09-01T22:15:54.818Z,77.16
2022-09-01T22:18:23.342Z,77.01
2022-09-01T22:20:51.041Z,77.36
2022-09-01T22:23:20.158Z,77.21
2022-09-01T22:25:48.190Z,77.14
2022-09-01T22:28:17.136Z,77.86
2022-09-01T22:30:46.684Z,78.47
2022-09-01T22:33:14.446Z,78.43
2022-09-01T22:35:43.162Z,78.73
2022-09-01T22:38:11.556Z,78.82
2022-09-01T22:40:44.736Z,78.71
2022-09-01T22:43:12.573Z,78.96
2022-09-01T22:45:43.369Z,78.86
2022-09-01T22:48:11.412Z,79.18
2022-09-01T22:50:40.605Z,79.36
2022-09-01T22:53:09.241Z,79.61
2022-09-01T22:55:38.390Z,80.03
2022-09-01T22:58:06.811Z,80.28
2022-09-01T23:00:35.201Z,80.56
2022-09-01T23:03:05.408Z,80.02
2022-09-01T23:05:33.022Z,80.52
2022-09-01T23:08:00.651Z,81.17
2022-09-01T23:10:29.022Z,80.74
2022-09-01T23:12:56.799Z,81.08
2022-09-01T23:15:24.510Z,81.28
2022-09-01T23:17:52.138Z,80.87
2022-09-01T23:20:21.353Z,81.53
2022-09-01T23:22:49.021Z,81.27
2022-09-01T23:25:17.579Z,80.94
2022-09-01T23:27:45.704Z,81.32
2022-09-01T23:30:16.093Z,81.71
2022-09-01T23:32:44.043Z,81.94
2022-09-01T23:35:12.048Z,82.27
2022-09-01T23:37:41.020Z,82.34
2022-09-01T23:40:10.417Z,82.80
2022-09-01T23:42:38.163Z,83.10
2022-09-01T23:45:06.831Z,83.35
2022-09-01T23:47:35.492Z,83.96
2022-09-01T23:50:03.386Z,83.67
2022-09-01T23:52:31.136Z,83.67
2022-09-01T23:55:00.647Z,83.42
2022-09-01T23:57:28.245Z,83.55
2022-09-01T23:59:57.105Z,83.75
